sensor_id;sensor_type;location;lat;lon;timestamp;temperature;humidity
52397;DHT22;38322;53.108;6.308;2023-02-01T06:00:44;6.20;99.90
52397;DHT22;38322;53.108;6.308;2023-02-01T06:03:09;5.70;99.90
52397;DHT22;38322;53.108;6.308;2023-02-01T06:05:35;5.60;99.90
52397;DHT22;38322;53.108;6.308;2023-02-01T06:08:03;5.60;99.90
52397;DHT22;38322;53.108;6.308;2023-02-01T06:10:29;5.60;99.90
52397;DHT22;38322;53.108;6.308;2023-02-01T06:12:56;5.60;99.90
52397;DHT22;38322;53.108;6.308;2023-02-01T06:15:22;5.60;99.90
52397;DHT22;38322;53.108;6.308;2023-02-01T06:17:47;5.50;99.90
52397;DHT22;38322;53.108;6.308;2023-02-01T06:20:14;5.50;99.90
52397;DHT22;38322;53.108;6.308;2023-02-01T06:22:41;5.40;99.90
52397;DHT22;38322;53.108;6.308;2023-02-01T06:25:08;5.30;99.90
52397;DHT22;38322;53.108;6.308;2023-02-01T06:27:34;5.30;99.90
52397;DHT22;38322;53.108;6.308;2023-02-01T06:30:01;5.20;99.90
52397;DHT22;38322;53.108;6.308;2023-02-01T06:32:27;5.20;99.90
52397;DHT22;38322;53.108;6.308;2023-02-01T06:34:52;5.20;99.90
52397;DHT22;38322;53.108;6.308;2023-02-01T06:37:19;5.20;99.90
52397;DHT22;38322;53.108;6.308;2023-02-01T06:39:45;5.20;99.90
52397;DHT22;38322;53.108;6.308;2023-02-01T06:42:11;5.30;99.90
52397;DHT22;38322;53.108;6.308;2023-02-01T06:44:36;5.30;99.90
52397;DHT22;38322;53.108;6.308;2023-02-01T06:47:04;5.30;99.90
52397;DHT22;38322;53.108;6.308;2023-02-01T06:49:30;5.40;99.90
52397;DHT22;38322;53.108;6.308;2023-02-01T06:51:55;5.40;99.90
52397;DHT22;38322;53.108;6.308;2023-02-01T06:54:21;5.30;99.90
52397;DHT22;38322;53.108;6.308;2023-02-01T06:56:47;5.40;99.90
52397;DHT22;38322;53.108;6.308;2023-02-01T06:59:13;5.40;99.90
52397;DHT22;38322;53.108;6.308;2023-02-01T07:01:39;5.40;99.90
52397;DHT22;38322;53.108;6.308;2023-02-01T07:04:05;5.40;99.90
52397;DHT22;38322;53.108;6.308;2023-02-01T07:06:31;5.50;99.90
52397;DHT22;38322;53.108;6.308;2023-02-01T07:08:57;5.50;99.90
52397;DHT22;38322;53.108;6.308;2023-02-01T07:11:23;5.50;99.90
52397;DHT22;38322;53.108;6.308;2023-02-01T07:13:48;5.50;99.90
52397;DHT22;38322;53.108;6.308;2023-02-01T07:16:17;5.60;99.90
52397;DHT22;38322;53.108;6.308;2023-02-01T07:18:43;5.60;99.90
52397;DHT22;38322;53.108;6.308;2023-02-01T07:21:09;5.50;99.90
52397;DHT22;38322;53.108;6.308;2023-02-01T07:23:35;5.50;99.90
52397;DHT22;38322;53.108;6.308;2023-02-01T07:26:04;5.50;99.90
52397;DHT22;38322;53.108;6.308;2023-02-01T07:28:32;5.60;99.90
52397;DHT22;38322;53.108;6.308;2023-02-01T07:31:06;5.60;99.90
52397;DHT22;38322;53.108;6.308;2023-02-01T07:33:33;5.50;99.90
52397;DHT22;38322;53.108;6.308;2023-02-01T07:36:03;5.50;99.90
52397;DHT22;38322;53.108;6.308;2023-02-01T07:38:29;5.50;99.90
52397;DHT22;38322;53.108;6.308;2023-02-01T07:41:01;5.50;99.90
52397;DHT22;38322;53.108;6.308;2023-02-01T07:43:28;5.50;99.90
52397;DHT22;38322;53.108;6.308;2023-02-01T07:45:54;5.50;99.90
52397;DHT22;38322;53.108;6.308;2023-02-01T07:48:22;5.50;99.90
52397;DHT22;38322;53.108;6.308;2023-02-01T07:50:48;5.40;99.90
52397;DHT22;38322;53.108;6.308;2023-02-01T07:53:14;5.40;99.90
52397;DHT22;38322;53.108;6.308;2023-02-01T07:55:40;5.40;99.90
52397;DHT22;38322;53.108;6.308;2023-02-01T07:58:06;5.40;99.90
52397;DHT22;38322;53.108;6.308;2023-02-01T08:00:32;5.40;99.90
52397;DHT22;38322;53.108;6.308;2023-02-01T08:03:16;5.40;99.90
52397;DHT22;38322;53.108;6.308;2023-02-01T08:05:42;5.50;99.90
52397;DHT22;38322;53.108;6.308;2023-02-01T08:08:08;5.50;99.90
52397;DHT22;38322;53.108;6.308;2023-02-01T08:10:34;5.50;99.90
52397;DHT22;38322;53.108;6.308;2023-02-01T08:13:01;5.50;99.90
52397;DHT22;38322;53.108;6.308;2023-02-01T08:15:30;5.60;99.90
52397;DHT22;38322;53.108;6.308;2023-02-01T08:17:56;5.60;99.90
52397;DHT22;38322;53.108;6.308;2023-02-01T08:20:22;5.60;99.90
52397;DHT22;38322;53.108;6.308;2023-02-01T08:22:50;5.70;99.90
52397;DHT22;38322;53.108;6.308;2023-02-01T08:25:16;5.70;99.90
52397;DHT22;38322;53.108;6.308;2023-02-01T08:27:41;5.70;99.90
52397;DHT22;38322;53.108;6.308;2023-02-01T08:30:09;5.70;99.90
52397;DHT22;38322;53.108;6.308;2023-02-01T08:32:35;5.70;99.90
52397;DHT22;38322;53.108;6.308;2023-02-01T08:35:01;5.70;99.90
52397;DHT22;38322;53.108;6.308;2023-02-01T08:37:27;5.70;99.90
52397;DHT22;38322;53.108;6.308;2023-02-01T08:39:52;5.70;99.90
52397;DHT22;38322;53.108;6.308;2023-02-01T08:42:18;5.80;99.90
52397;DHT22;38322;53.108;6.308;2023-02-01T08:45:03;5.80;99.90
52397;DHT22;38322;53.108;6.308;2023-02-01T08:47:30;5.80;99.90
52397;DHT22;38322;53.108;6.308;2023-02-01T08:49:56;5.80;99.90
52397;DHT22;38322;53.108;6.308;2023-02-01T08:52:22;5.80;99.90
52397;DHT22;38322;53.108;6.308;2023-02-01T08:54:48;5.80;99.90
52397;DHT22;38322;53.108;6.308;2023-02-01T08:57:13;5.80;99.90
52397;DHT22;38322;53.108;6.308;2023-02-01T08:59:39;5.80;99.90
52397;DHT22;38322;53.108;6.308;2023-02-01T09:02:05;5.80;99.90
52397;DHT22;38322;53.108;6.308;2023-02-01T09:04:31;5.80;99.90
52397;DHT22;38322;53.108;6.308;2023-02-01T09:06:57;5.80;99.90
52397;DHT22;38322;53.108;6.308;2023-02-01T09:09:23;5.90;99.90
52397;DHT22;38322;53.108;6.308;2023-02-01T09:11:49;5.80;99.90
52397;DHT22;38322;53.108;6.308;2023-02-01T09:14:16;5.90;99.90
52397;DHT22;38322;53.108;6.308;2023-02-01T09:16:42;5.80;99.90
52397;DHT22;38322;53.108;6.308;2023-02-01T09:19:08;5.80;99.90
52397;DHT22;38322;53.108;6.308;2023-02-01T09:21:34;5.90;99.90
52397;DHT22;38322;53.108;6.308;2023-02-01T09:24:00;5.80;99.90
52397;DHT22;38322;53.108;6.308;2023-02-01T09:26:26;5.80;99.90
52397;DHT22;38322;53.108;6.308;2023-02-01T09:28:52;5.80;99.90
52397;DHT22;38322;53.108;6.308;2023-02-01T09:31:18;5.80;99.90
52397;DHT22;38322;53.108;6.308;2023-02-01T09:33:44;5.80;99.90
52397;DHT22;38322;53.108;6.308;2023-02-01T09:36:10;5.90;99.90
52397;DHT22;38322;53.108;6.308;2023-02-01T09:38:36;5.80;99.90
52397;DHT22;38322;53.108;6.308;2023-02-01T09:41:16;5.80;99.90
52397;DHT22;38322;53.108;6.308;2023-02-01T09:43:59;5.80;99.90
52397;DHT22;38322;53.108;6.308;2023-02-01T09:46:33;5.80;99.90
52397;DHT22;38322;53.108;6.308;2023-02-01T09:49:08;5.80;99.90
52397;DHT22;38322;53.108;6.308;2023-02-01T09:51:38;5.80;99.90
52397;DHT22;38322;53.108;6.308;2023-02-01T09:54:19;5.80;99.90
52397;DHT22;38322;53.108;6.308;2023-02-01T09:56:51;5.90;99.90
52397;DHT22;38322;53.108;6.308;2023-02-01T10:02:01;5.90;99.90
52397;DHT22;38322;53.108;6.308;2023-02-01T10:04:27;5.90;99.90
52397;DHT22;38322;53.108;6.308;2023-02-01T10:06:56;5.90;99.90
52397;DHT22;38322;53.108;6.308;2023-02-01T10:09:36;5.90;99.90
52397;DHT22;38322;53.108;6.308;2023-02-01T10:23:32;5.90;99.90
52397;DHT22;38322;53.108;6.308;2023-02-01T10:25:55;5.90;99.90
52397;DHT22;38322;53.108;6.308;2023-02-01T10:28:24;6.00;99.90
52397;DHT22;38322;53.108;6.308;2023-02-01T10:30:56;6.00;99.90
52397;DHT22;38322;53.108;6.308;2023-02-01T10:33:41;6.10;99.90
52397;DHT22;38322;53.108;6.308;2023-02-01T10:36:16;6.10;99.90
52397;DHT22;38322;53.108;6.308;2023-02-01T10:38:44;6.20;99.90
52397;DHT22;38322;53.108;6.308;2023-02-01T10:43:38;6.30;99.90
52397;DHT22;38322;53.108;6.308;2023-02-01T10:46:06;6.40;99.90
52397;DHT22;38322;53.108;6.308;2023-02-01T10:48:32;6.30;99.90
52397;DHT22;38322;53.108;6.308;2023-02-01T10:53:31;6.40;99.90
52397;DHT22;38322;53.108;6.308;2023-02-01T10:56:07;6.40;99.90
52397;DHT22;38322;53.108;6.308;2023-02-01T10:58:33;6.40;99.90
52397;DHT22;38322;53.108;6.308;2023-02-01T11:01:10;6.40;99.90
52397;DHT22;38322;53.108;6.308;2023-02-01T11:03:45;6.40;99.90
52397;DHT22;38322;53.108;6.308;2023-02-01T11:06:24;6.40;99.90
52397;DHT22;38322;53.108;6.308;2023-02-01T11:08:53;6.40;99.90
52397;DHT22;38322;53.108;6.308;2023-02-01T11:11:20;6.40;99.90
52397;DHT22;38322;53.108;6.308;2023-02-01T11:13:54;6.40;99.90
52397;DHT22;38322;53.108;6.308;2023-02-01T11:16:20;6.40;99.90
52397;DHT22;38322;53.108;6.308;2023-02-01T11:18:53;6.40;99.90
52397;DHT22;38322;53.108;6.308;2023-02-01T11:21:20;6.50;99.90
52397;DHT22;38322;53.108;6.308;2023-02-01T11:23:47;6.50;99.90
52397;DHT22;38322;53.108;6.308;2023-02-01T11:26:19;6.60;99.90
52397;DHT22;38322;53.108;6.308;2023-02-01T11:28:53;6.60;99.90
52397;DHT22;38322;53.108;6.308;2023-02-01T11:31:20;6.60;99.90
52397;DHT22;38322;53.108;6.308;2023-02-01T11:33:51;6.60;99.90
52397;DHT22;38322;53.108;6.308;2023-02-01T11:36:23;6.50;99.90
52397;DHT22;38322;53.108;6.308;2023-02-01T11:39:06;6.50;99.90
52397;DHT22;38322;53.108;6.308;2023-02-01T11:41:34;6.50;99.90
52397;DHT22;38322;53.108;6.308;2023-02-01T11:44:02;6.50;99.90
52397;DHT22;38322;53.108;6.308;2023-02-01T11:46:41;6.50;99.90
52397;DHT22;38322;53.108;6.308;2023-02-01T11:49:21;6.60;99.90
52397;DHT22;38322;53.108;6.308;2023-02-01T11:52:14;6.70;99.90
52397;DHT22;38322;53.108;6.308;2023-02-01T11:55:00;6.70;99.90
52397;DHT22;38322;53.108;6.308;2023-02-01T11:57:54;6.70;99.90
52397;DHT22;38322;53.108;6.308;2023-02-01T12:05:31;6.90;99.90
52397;DHT22;38322;53.108;6.308;2023-02-01T12:10:38;7.10;99.90
52397;DHT22;38322;53.108;6.308;2023-02-01T12:16:18;7.20;99.90
52397;DHT22;38322;53.108;6.308;2023-02-01T12:18:59;7.20;99.90
52397;DHT22;38322;53.108;6.308;2023-02-01T12:24:21;7.40;99.90
52397;DHT22;38322;53.108;6.308;2023-02-01T12:27:06;7.50;99.90
52397;DHT22;38322;53.108;6.308;2023-02-01T12:32:42;7.80;99.90
52397;DHT22;38322;53.108;6.308;2023-02-01T12:43:21;7.70;99.90
52397;DHT22;38322;53.108;6.308;2023-02-01T12:46:06;7.70;99.90
52397;DHT22;38322;53.108;6.308;2023-02-01T12:48:34;7.70;99.90
52397;DHT22;38322;53.108;6.308;2023-02-01T12:51:05;7.60;99.90
52397;DHT22;38322;53.108;6.308;2023-02-01T12:53:43;7.60;99.90
52397;DHT22;38322;53.108;6.308;2023-02-01T12:56:24;7.60;99.90
52397;DHT22;38322;53.108;6.308;2023-02-01T12:58:53;7.50;99.90
52397;DHT22;38322;53.108;6.308;2023-02-01T13:01:40;7.50;99.90
52397;DHT22;38322;53.108;6.308;2023-02-01T13:04:13;7.50;99.90
52397;DHT22;38322;53.108;6.308;2023-02-01T13:06:53;7.50;99.90
52397;DHT22;38322;53.108;6.308;2023-02-01T13:09:31;7.60;99.90
52397;DHT22;38322;53.108;6.308;2023-02-01T13:12:07;7.60;99.90
52397;DHT22;38322;53.108;6.308;2023-02-01T13:14:57;7.50;99.90
52397;DHT22;38322;53.108;6.308;2023-02-01T13:17:27;7.50;99.90
52397;DHT22;38322;53.108;6.308;2023-02-01T13:20:13;7.50;99.90
52397;DHT22;38322;53.108;6.308;2023-02-01T13:22:45;7.50;99.90
52397;DHT22;38322;53.108;6.308;2023-02-01T13:25:31;7.50;99.90
52397;DHT22;38322;53.108;6.308;2023-02-01T13:28:06;7.50;99.90
52397;DHT22;38322;53.108;6.308;2023-02-01T13:33:14;7.50;99.90
52397;DHT22;38322;53.108;6.308;2023-02-01T13:41:27;7.30;99.90
52397;DHT22;38322;53.108;6.308;2023-02-01T13:44:03;7.40;99.90
52397;DHT22;38322;53.108;6.308;2023-02-01T13:46:30;7.50;99.90
52397;DHT22;38322;53.108;6.308;2023-02-01T13:49:03;7.60;99.90
52397;DHT22;38322;53.108;6.308;2023-02-01T13:51:35;7.60;99.90
52397;DHT22;38322;53.108;6.308;2023-02-01T13:54:01;7.60;99.90
52397;DHT22;38322;53.108;6.308;2023-02-01T13:56:41;7.50;99.90
52397;DHT22;38322;53.108;6.308;2023-02-01T13:59:36;7.50;99.90
52397;DHT22;38322;53.108;6.308;2023-02-01T14:05:03;7.50;99.90
52397;DHT22;38322;53.108;6.308;2023-02-01T14:07:28;7.60;99.90
52397;DHT22;38322;53.108;6.308;2023-02-01T14:09:55;7.70;99.90
52397;DHT22;38322;53.108;6.308;2023-02-01T14:15:23;7.80;99.90
52397;DHT22;38322;53.108;6.308;2023-02-01T14:17:50;7.80;99.90
52397;DHT22;38322;53.108;6.308;2023-02-01T14:23:14;7.80;99.90
52397;DHT22;38322;53.108;6.308;2023-02-01T14:25:41;7.90;99.90
52397;DHT22;38322;53.108;6.308;2023-02-01T14:28:12;7.90;99.90
52397;DHT22;38322;53.108;6.308;2023-02-01T14:30:47;7.90;99.90
52397;DHT22;38322;53.108;6.308;2023-02-01T14:33:22;7.90;99.90
52397;DHT22;38322;53.108;6.308;2023-02-01T14:36:02;7.90;99.90
52397;DHT22;38322;53.108;6.308;2023-02-01T14:38:29;7.80;99.90
52397;DHT22;38322;53.108;6.308;2023-02-01T14:41:18;7.80;99.90
52397;DHT22;38322;53.108;6.308;2023-02-01T14:43:50;7.80;99.90
52397;DHT22;38322;53.108;6.308;2023-02-01T14:46:16;7.70;99.90
52397;DHT22;38322;53.108;6.308;2023-02-01T14:48:44;7.70;99.90
52397;DHT22;38322;53.108;6.308;2023-02-01T14:51:14;7.60;99.90
52397;DHT22;38322;53.108;6.308;2023-02-01T14:53:41;7.60;99.90
52397;DHT22;38322;53.108;6.308;2023-02-01T14:56:14;7.50;99.90
52397;DHT22;38322;53.108;6.308;2023-02-01T15:01:21;7.40;99.90
52397;DHT22;38322;53.108;6.308;2023-02-01T15:03:56;7.40;99.90
52397;DHT22;38322;53.108;6.308;2023-02-01T15:09:04;7.30;99.90
52397;DHT22;38322;53.108;6.308;2023-02-01T15:14:19;7.30;99.90
52397;DHT22;38322;53.108;6.308;2023-02-01T15:16:45;7.30;99.90
52397;DHT22;38322;53.108;6.308;2023-02-01T15:19:20;7.20;99.90
52397;DHT22;38322;53.108;6.308;2023-02-01T15:21:50;7.20;99.90
52397;DHT22;38322;53.108;6.308;2023-02-01T15:24:29;7.20;99.90
52397;DHT22;38322;53.108;6.308;2023-02-01T15:27:02;7.20;99.90
52397;DHT22;38322;53.108;6.308;2023-02-01T15:29:29;7.10;99.90
52397;DHT22;38322;53.108;6.308;2023-02-01T15:31:58;7.10;99.90
52397;DHT22;38322;53.108;6.308;2023-02-01T15:34:44;7.10;99.90
52397;DHT22;38322;53.108;6.308;2023-02-01T15:37:14;7.10;99.90
52397;DHT22;38322;53.108;6.308;2023-02-01T15:42:29;7.00;99.90
52397;DHT22;38322;53.108;6.308;2023-02-01T15:44:55;7.00;99.90
52397;DHT22;38322;53.108;6.308;2023-02-01T15:47:25;7.00;99.90
52397;DHT22;38322;53.108;6.308;2023-02-01T15:49:54;7.00;99.90
52397;DHT22;38322;53.108;6.308;2023-02-01T15:52:26;6.90;99.90
52397;DHT22;38322;53.108;6.308;2023-02-01T15:54:57;6.90;99.90
52397;DHT22;38322;53.108;6.308;2023-02-01T15:57:32;6.90;99.90
52397;DHT22;38322;53.108;6.308;2023-02-01T16:00:03;6.80;99.90
52397;DHT22;38322;53.108;6.308;2023-02-01T16:02:38;6.80;99.90
52397;DHT22;38322;53.108;6.308;2023-02-01T16:08:02;6.70;99.90
52397;DHT22;38322;53.108;6.308;2023-02-01T16:10:30;6.60;99.90
52397;DHT22;38322;53.108;6.308;2023-02-01T16:12:56;6.60;99.90
52397;DHT22;38322;53.108;6.308;2023-02-01T16:15:27;6.60;99.90
52397;DHT22;38322;53.108;6.308;2023-02-01T16:17:55;6.60;99.90
52397;DHT22;38322;53.108;6.308;2023-02-01T16:20:21;6.50;99.90
52397;DHT22;38322;53.108;6.308;2023-02-01T16:22:47;6.40;99.90
52397;DHT22;38322;53.108;6.308;2023-02-01T16:25:13;6.30;99.90
52397;DHT22;38322;53.108;6.308;2023-02-01T16:27:38;6.40;99.90
52397;DHT22;38322;53.108;6.308;2023-02-01T16:30:04;6.30;99.90
52397;DHT22;38322;53.108;6.308;2023-02-01T16:32:30;6.20;99.90
52397;DHT22;38322;53.108;6.308;2023-02-01T16:34:57;6.20;99.90
52397;DHT22;38322;53.108;6.308;2023-02-01T16:37:24;6.20;99.90
52397;DHT22;38322;53.108;6.308;2023-02-01T16:39:51;6.20;99.90
52397;DHT22;38322;53.108;6.308;2023-02-01T16:42:17;6.20;99.90
52397;DHT22;38322;53.108;6.308;2023-02-01T16:44:43;6.20;99.90
52397;DHT22;38322;53.108;6.308;2023-02-01T16:47:16;6.10;99.90
52397;DHT22;38322;53.108;6.308;2023-02-01T16:49:43;6.10;99.90
52397;DHT22;38322;53.108;6.308;2023-02-01T16:52:16;6.10;99.90
52397;DHT22;38322;53.108;6.308;2023-02-01T16:54:43;6.00;99.90
52397;DHT22;38322;53.108;6.308;2023-02-01T16:57:17;6.00;99.90
52397;DHT22;38322;53.108;6.308;2023-02-01T16:59:44;6.00;99.90
52397;DHT22;38322;53.108;6.308;2023-02-01T17:02:13;6.00;99.90
52397;DHT22;38322;53.108;6.308;2023-02-01T17:04:39;6.00;99.90
52397;DHT22;38322;53.108;6.308;2023-02-01T17:07:06;6.10;99.90
52397;DHT22;38322;53.108;6.308;2023-02-01T17:09:36;6.10;99.90
52397;DHT22;38322;53.108;6.308;2023-02-01T17:12:03;6.10;99.90
52397;DHT22;38322;53.108;6.308;2023-02-01T17:14:30;6.00;99.90
52397;DHT22;38322;53.108;6.308;2023-02-01T17:16:56;6.00;99.90
52397;DHT22;38322;53.108;6.308;2023-02-01T17:19:23;6.00;99.90
52397;DHT22;38322;53.108;6.308;2023-02-01T17:21:51;6.00;99.90
52397;DHT22;38322;53.108;6.308;2023-02-01T17:24:22;5.90;99.90
52397;DHT22;38322;53.108;6.308;2023-02-01T17:26:48;5.90;99.90
52397;DHT22;38322;53.108;6.308;2023-02-01T17:29:16;5.90;99.90
52397;DHT22;38322;53.108;6.308;2023-02-01T17:31:44;5.80;99.90
52397;DHT22;38322;53.108;6.308;2023-02-01T17:34:12;5.90;99.90
52397;DHT22;38322;53.108;6.308;2023-02-01T17:36:40;5.80;99.90
52397;DHT22;38322;53.108;6.308;2023-02-01T17:39:08;5.80;99.90
52397;DHT22;38322;53.108;6.308;2023-02-01T17:41:34;5.80;99.90
52397;DHT22;38322;53.108;6.308;2023-02-01T17:44:00;5.80;99.90
52397;DHT22;38322;53.108;6.308;2023-02-01T17:46:26;5.90;99.90
52397;DHT22;38322;53.108;6.308;2023-02-01T17:48:53;5.80;99.90
52397;DHT22;38322;53.108;6.308;2023-02-01T17:51:22;5.80;99.90
52397;DHT22;38322;53.108;6.308;2023-02-01T17:53:48;5.80;99.90
52397;DHT22;38322;53.108;6.308;2023-02-01T17:56:17;5.80;99.90
52397;DHT22;38322;53.108;6.308;2023-02-01T17:58:44;5.80;99.90
52397;DHT22;38322;53.108;6.308;2023-02-01T18:01:28;5.80;99.90
52397;DHT22;38322;53.108;6.308;2023-02-01T18:03:54;5.80;99.90
52397;DHT22;38322;53.108;6.308;2023-02-01T18:06:22;5.70;99.90
52397;DHT22;38322;53.108;6.308;2023-02-01T18:08:48;5.70;99.90
52397;DHT22;38322;53.108;6.308;2023-02-01T18:11:17;5.70;99.90
52397;DHT22;38322;53.108;6.308;2023-02-01T18:13:43;5.70;99.90
52397;DHT22;38322;53.108;6.308;2023-02-01T18:16:26;5.70;99.90
52397;DHT22;38322;53.108;6.308;2023-02-01T18:18:52;5.70;99.90
52397;DHT22;38322;53.108;6.308;2023-02-01T18:21:20;5.70;99.90
52397;DHT22;38322;53.108;6.308;2023-02-01T18:23:47;5.70;99.90
52397;DHT22;38322;53.108;6.308;2023-02-01T18:26:15;5.70;99.90
52397;DHT22;38322;53.108;6.308;2023-02-01T18:28:42;5.70;99.90
52397;DHT22;38322;53.108;6.308;2023-02-01T18:31:23;5.70;99.90
52397;DHT22;38322;53.108;6.308;2023-02-01T18:33:50;5.80;99.90
52397;DHT22;38322;53.108;6.308;2023-02-01T18:36:16;5.80;99.90
52397;DHT22;38322;53.108;6.308;2023-02-01T18:38:42;5.80;99.90
52397;DHT22;38322;53.108;6.308;2023-02-01T18:41:17;5.90;99.90
52397;DHT22;38322;53.108;6.308;2023-02-01T18:43:46;5.90;99.90
52397;DHT22;38322;53.108;6.308;2023-02-01T18:46:13;5.90;99.90
52397;DHT22;38322;53.108;6.308;2023-02-01T18:48:40;5.80;99.90
52397;DHT22;38322;53.108;6.308;2023-02-01T18:51:12;5.80;99.90
52397;DHT22;38322;53.108;6.308;2023-02-01T18:53:42;5.80;99.90
52397;DHT22;38322;53.108;6.308;2023-02-01T18:56:10;5.70;99.90
52397;DHT22;38322;53.108;6.308;2023-02-01T18:58:37;5.60;99.90
52397;DHT22;38322;53.108;6.308;2023-02-01T19:01:06;5.60;99.90
52397;DHT22;38322;53.108;6.308;2023-02-01T19:03:34;5.50;99.90
52397;DHT22;38322;53.108;6.308;2023-02-01T19:05:59;5.40;99.90
52397;DHT22;38322;53.108;6.308;2023-02-01T19:08:26;5.40;99.90
52397;DHT22;38322;53.108;6.308;2023-02-01T19:10:52;5.30;99.90
52397;DHT22;38322;53.108;6.308;2023-02-01T19:13:18;5.20;99.90
52397;DHT22;38322;53.108;6.308;2023-02-01T19:15:48;5.20;99.90
52397;DHT22;38322;53.108;6.308;2023-02-01T19:18:14;5.20;99.90
52397;DHT22;38322;53.108;6.308;2023-02-01T19:20:45;5.20;99.90
52397;DHT22;38322;53.108;6.308;2023-02-01T19:23:13;5.30;99.90
52397;DHT22;38322;53.108;6.308;2023-02-01T19:25:42;5.20;99.90
52397;DHT22;38322;53.108;6.308;2023-02-01T19:28:09;5.20;99.90
52397;DHT22;38322;53.108;6.308;2023-02-01T19:30:35;5.20;99.90
52397;DHT22;38322;53.108;6.308;2023-02-01T19:33:00;5.20;99.90
52397;DHT22;38322;53.108;6.308;2023-02-01T19:35:29;5.30;99.90
52397;DHT22;38322;53.108;6.308;2023-02-01T19:37:55;5.30;99.90
52397;DHT22;38322;53.108;6.308;2023-02-01T19:40:21;5.30;99.90
52397;DHT22;38322;53.108;6.308;2023-02-01T19:42:47;5.30;99.90
52397;DHT22;38322;53.108;6.308;2023-02-01T19:45:14;5.30;99.90
52397;DHT22;38322;53.108;6.308;2023-02-01T19:47:40;5.30;99.90
52397;DHT22;38322;53.108;6.308;2023-02-01T19:50:07;5.40;99.90
52397;DHT22;38322;53.108;6.308;2023-02-01T19:52:34;5.40;99.90
52397;DHT22;38322;53.108;6.308;2023-02-01T19:55:00;5.40;99.90
52397;DHT22;38322;53.108;6.308;2023-02-01T19:57:29;5.50;99.90
52397;DHT22;38322;53.108;6.308;2023-02-01T19:59:55;5.40;99.90
52397;DHT22;38322;53.108;6.308;2023-02-01T20:02:21;5.40;99.90
52397;DHT22;38322;53.108;6.308;2023-02-01T20:04:47;5.40;99.90
52397;DHT22;38322;53.108;6.308;2023-02-01T20:07:13;5.40;99.90
52397;DHT22;38322;53.108;6.308;2023-02-01T20:09:39;5.30;99.90
52397;DHT22;38322;53.108;6.308;2023-02-01T20:12:08;5.30;99.90
52397;DHT22;38322;53.108;6.308;2023-02-01T20:14:34;5.30;99.90
52397;DHT22;38322;53.108;6.308;2023-02-01T20:17:00;5.20;99.90
52397;DHT22;38322;53.108;6.308;2023-02-01T20:19:25;5.20;99.90
52397;DHT22;38322;53.108;6.308;2023-02-01T20:21:51;5.20;99.90
52397;DHT22;38322;53.108;6.308;2023-02-01T20:24:17;5.20;99.90
52397;DHT22;38322;53.108;6.308;2023-02-01T20:26:44;5.10;99.90
52397;DHT22;38322;53.108;6.308;2023-02-01T20:29:10;5.10;99.90
52397;DHT22;38322;53.108;6.308;2023-02-01T20:31:38;5.10;99.90
52397;DHT22;38322;53.108;6.308;2023-02-01T20:34:04;5.00;99.90
52397;DHT22;38322;53.108;6.308;2023-02-01T20:36:30;5.00;99.90
52397;DHT22;38322;53.108;6.308;2023-02-01T20:38:57;4.90;99.90
52397;DHT22;38322;53.108;6.308;2023-02-01T20:41:24;5.00;99.90
52397;DHT22;38322;53.108;6.308;2023-02-01T20:43:50;5.00;99.90
52397;DHT22;38322;53.108;6.308;2023-02-01T20:46:16;5.00;99.90
52397;DHT22;38322;53.108;6.308;2023-02-01T20:48:44;5.00;99.90
52397;DHT22;38322;53.108;6.308;2023-02-01T20:51:11;5.00;99.90
52397;DHT22;38322;53.108;6.308;2023-02-01T20:53:38;4.90;99.90
52397;DHT22;38322;53.108;6.308;2023-02-01T20:56:05;4.90;99.90
52397;DHT22;38322;53.108;6.308;2023-02-01T20:58:31;4.90;99.90
